This is the latest recevied weather packets stored in our database for station/object KA9CBS. If no packets are shown the sender has not sent any weather packets the latest 10 day(s).
| Time | Temp. | Humidity | Pressure | Rain* | Wind** | Luminosity | Snow |
|---|---|---|---|---|---|---|---|
| 1777977639 | 18.33° C | 70% | 1007.8 hPa | 0 mm | - | 0 W/m² | - |
| 1777977336 | 18.33° C | 69% | 1007.7 hPa | 0 mm | - | 0 W/m² | - |
| 1777977033 | 18.33° C | 69% | 1007.9 hPa | 0 mm | - | 0 W/m² | - |
| 1777976730 | 18.33° C | 70% | 1008 hPa | 0 mm | - | 0 W/m² | - |
| 1777976427 | 17.78° C | 71% | 1007.9 hPa | 0 mm | - | 0 W/m² | - |
| 1777976126 | 17.78° C | 72% | 1007.9 hPa | 0 mm | - | 0 W/m² | - |
| 1777975822 | 17.22° C | 74% | 1008.1 hPa | 0 mm | - | 0 W/m² | - |
| 1777975519 | 17.22° C | 74% | 1008 hPa | 0 mm | - | 0 W/m² | - |
| 1777975216 | 17.22° C | 75% | 1007.9 hPa | 0 mm | - | 0 W/m² | - |
| 1777974912 | 17.22° C | 76% | 1008 hPa | 0 mm | - | 0 W/m² | - |
| 1777974608 | 17.22° C | 75% | 1008 hPa | 0 mm | - | 0 W/m² | - |
| 1777974305 | 17.78° C | 73% | 1008 hPa | 0 mm | - | 0 W/m² | - |
| 1777974001 | 17.78° C | 73% | 1008.1 hPa | 0 mm | - | 0 W/m² | - |
| 1777973697 | 18.33° C | 70% | 1008.1 hPa | 0 mm | - | 0 W/m² | - |
| 1777973395 | 18.33° C | 69% | 1008.3 hPa | 0 mm | - | 0 W/m² | - |
| 1777973093 | 18.89° C | 68% | 1008.4 hPa | 0 mm | - | 0 W/m² | - |
| 1777972790 | 18.89° C | 68% | 1008.1 hPa | 0 mm | - | 0 W/m² | - |
| 1777972487 | 18.89° C | 67% | 1008.5 hPa | 0 mm | - | 0 W/m² | - |
| 1777972185 | 18.89° C | 66% | 1008.6 hPa | 0 mm | - | 0 W/m² | - |
| 1777971883 | 18.89° C | 66% | 1008.7 hPa | 0 mm | - | 0 W/m² | - |
| 1777971580 | 18.89° C | 68% | 1008.5 hPa | 0 mm | - | 0 W/m² | - |
| 1777971278 | 18.89° C | 69% | 1008.7 hPa | 0 mm | - | 0 W/m² | - |
| 1777970976 | 18.89° C | 68% | 1009.2 hPa | 0 mm | - | 0 W/m² | - |
| 1777970674 | 18.89° C | 67% | 1008.9 hPa | 0 mm | - | 0 W/m² | - |
| 1777970372 | 19.44° C | 65% | 1007.9 hPa | 0 mm | - | 0 W/m² | - |
* Rain latest hour (hover to see other rain measurements)
** Current wind speed in m/s (hover to see current wind gust speed)